sensor_id;sensor_type;location;lat;lon;timestamp;pressure;altitude;pressure_sealevel;temperature;humidity
48872;BME280;36154;51.674;7.824;2023-05-07T00:00:03;100848.66;;;22.52;48.61
48872;BME280;36154;51.674;7.824;2023-05-07T00:02:33;100848.72;;;22.50;48.97
48872;BME280;36154;51.674;7.824;2023-05-07T00:04:58;100853.91;;;22.50;48.76
48872;BME280;36154;51.674;7.824;2023-05-07T00:07:23;100852.16;;;22.51;48.64
48872;BME280;36154;51.674;7.824;2023-05-07T00:09:49;100853.06;;;22.50;48.63
48872;BME280;36154;51.674;7.824;2023-05-07T00:12:14;100850.44;;;22.51;48.61
48872;BME280;36154;51.674;7.824;2023-05-07T00:14:39;100843.53;;;22.50;48.90
48872;BME280;36154;51.674;7.824;2023-05-07T00:17:05;100857.34;;;22.51;48.62
48872;BME280;36154;51.674;7.824;2023-05-07T00:19:30;100854.75;;;22.51;48.86
48872;BME280;36154;51.674;7.824;2023-05-07T00:21:55;100847.81;;;22.51;48.73
48872;BME280;36154;51.674;7.824;2023-05-07T00:24:21;100847.00;;;22.49;48.60
48872;BME280;36154;51.674;7.824;2023-05-07T00:26:46;100855.63;;;22.51;48.76
48872;BME280;36154;51.674;7.824;2023-05-07T00:29:12;100854.75;;;22.51;48.61
48872;BME280;36154;51.674;7.824;2023-05-07T00:31:37;100859.94;;;22.51;48.81
48872;BME280;36154;51.674;7.824;2023-05-07T00:34:02;100859.09;;;22.50;48.67
48872;BME280;36154;51.674;7.824;2023-05-07T00:36:28;100854.75;;;22.51;48.57
48872;BME280;36154;51.674;7.824;2023-05-07T00:38:56;100860.06;;;22.48;48.72
48872;BME280;36154;51.674;7.824;2023-05-07T00:41:21;100860.81;;;22.51;48.84
48872;BME280;36154;51.674;7.824;2023-05-07T00:43:47;100851.31;;;22.50;48.83
48872;BME280;36154;51.674;7.824;2023-05-07T00:46:13;100853.91;;;22.50;48.77
48872;BME280;36154;51.674;7.824;2023-05-07T00:48:38;100847.88;;;22.50;48.51
48872;BME280;36154;51.674;7.824;2023-05-07T00:51:04;100857.34;;;22.51;48.69
48872;BME280;36154;51.674;7.824;2023-05-07T00:53:30;100858.22;;;22.51;48.63
48872;BME280;36154;51.674;7.824;2023-05-07T00:55:55;100850.47;;;22.50;48.43
48872;BME280;36154;51.674;7.824;2023-05-07T00:58:21;100853.03;;;22.51;48.56
48872;BME280;36154;51.674;7.824;2023-05-07T01:00:46;100846.13;;;22.50;48.45
48872;BME280;36154;51.674;7.824;2023-05-07T01:03:12;100848.72;;;22.50;48.57
48872;BME280;36154;51.674;7.824;2023-05-07T01:05:37;100855.63;;;22.51;48.52
48872;BME280;36154;51.674;7.824;2023-05-07T01:08:03;100850.44;;;22.51;48.52
48872;BME280;36154;51.674;7.824;2023-05-07T01:10:30;100856.50;;;22.50;48.64
48872;BME280;36154;51.674;7.824;2023-05-07T01:12:57;100852.16;;;22.51;48.57
48872;BME280;36154;51.674;7.824;2023-05-07T01:15:23;100842.63;;;22.51;48.58
48872;BME280;36154;51.674;7.824;2023-05-07T01:17:49;100844.38;;;22.51;49.12
48872;BME280;36154;51.674;7.824;2023-05-07T01:20:14;100840.88;;;22.52;48.66
48872;BME280;36154;51.674;7.824;2023-05-07T01:22:40;100832.31;;;22.50;48.68
48872;BME280;36154;51.674;7.824;2023-05-07T01:25:08;100827.94;;;22.50;48.60
48872;BME280;36154;51.674;7.824;2023-05-07T01:27:33;100829.66;;;22.51;48.68
48872;BME280;36154;51.674;7.824;2023-05-07T01:30:00;100821.00;;;22.51;48.39
48872;BME280;36154;51.674;7.824;2023-05-07T01:32:35;100824.47;;;22.51;48.60
48872;BME280;36154;51.674;7.824;2023-05-07T01:35:03;100820.16;;;22.50;48.60
48872;BME280;36154;51.674;7.824;2023-05-07T01:37:30;100830.53;;;22.50;48.56
48872;BME280;36154;51.674;7.824;2023-05-07T01:39:55;100824.47;;;22.51;48.58
48872;BME280;36154;51.674;7.824;2023-05-07T01:42:23;100827.06;;;22.51;48.48
48872;BME280;36154;51.674;7.824;2023-05-07T01:44:49;100837.44;;;22.51;48.31
48872;BME280;36154;51.674;7.824;2023-05-07T01:47:15;100829.66;;;22.51;48.58
48872;BME280;36154;51.674;7.824;2023-05-07T01:49:41;100838.34;;;22.50;48.33
48872;BME280;36154;51.674;7.824;2023-05-07T01:52:08;100841.75;;;22.51;48.41
48872;BME280;36154;51.674;7.824;2023-05-07T01:54:33;100839.22;;;22.49;48.35
48872;BME280;36154;51.674;7.824;2023-05-07T01:56:59;100840.97;;;22.49;48.47
48872;BME280;36154;51.674;7.824;2023-05-07T01:59:25;100834.84;;;22.51;48.44
48872;BME280;36154;51.674;7.824;2023-05-07T02:01:50;100833.97;;;22.51;48.35
48872;BME280;36154;51.674;7.824;2023-05-07T02:04:15;100833.13;;;22.50;48.34
48872;BME280;36154;51.674;7.824;2023-05-07T02:06:41;100827.94;;;22.50;48.41
48872;BME280;36154;51.674;7.824;2023-05-07T02:09:06;100833.13;;;22.50;48.47
48872;BME280;36154;51.674;7.824;2023-05-07T02:11:31;100831.44;;;22.49;48.47
48872;BME280;36154;51.674;7.824;2023-05-07T02:13:57;100843.47;;;22.52;48.71
48872;BME280;36154;51.674;7.824;2023-05-07T02:16:22;100839.22;;;22.49;48.70
48872;BME280;36154;51.674;7.824;2023-05-07T02:18:48;100853.06;;;22.50;48.57
48872;BME280;36154;51.674;7.824;2023-05-07T02:21:14;100841.81;;;22.49;48.43
48872;BME280;36154;51.674;7.824;2023-05-07T02:23:39;100850.44;;;22.51;48.52
48872;BME280;36154;51.674;7.824;2023-05-07T02:26:04;100837.53;;;22.48;48.48
48872;BME280;36154;51.674;7.824;2023-05-07T02:28:30;100844.38;;;22.51;48.40
48872;BME280;36154;51.674;7.824;2023-05-07T02:30:55;100842.63;;;22.51;48.66
48872;BME280;36154;51.674;7.824;2023-05-07T02:33:20;100843.53;;;22.50;48.45
48872;BME280;36154;51.674;7.824;2023-05-07T02:35:46;100834.91;;;22.50;48.47
48872;BME280;36154;51.674;7.824;2023-05-07T02:38:11;100838.34;;;22.50;48.28
48872;BME280;36154;51.674;7.824;2023-05-07T02:40:36;100827.09;;;22.50;48.62
48872;BME280;36154;51.674;7.824;2023-05-07T02:43:07;100834.03;;;22.49;48.56
48872;BME280;36154;51.674;7.824;2023-05-07T02:45:35;100826.25;;;22.49;48.41
48872;BME280;36154;51.674;7.824;2023-05-07T02:48:02;100827.94;;;22.50;48.43
48872;BME280;36154;51.674;7.824;2023-05-07T02:50:27;100828.84;;;22.49;48.53
48872;BME280;36154;51.674;7.824;2023-05-07T02:52:53;100833.13;;;22.50;48.46
48872;BME280;36154;51.674;7.824;2023-05-07T02:55:18;100843.53;;;22.50;48.50
48872;BME280;36154;51.674;7.824;2023-05-07T02:57:43;100831.44;;;22.49;48.34
48872;BME280;36154;51.674;7.824;2023-05-07T03:00:18;100834.03;;;22.49;48.53
48872;BME280;36154;51.674;7.824;2023-05-07T03:02:44;100833.13;;;22.50;48.56
48872;BME280;36154;51.674;7.824;2023-05-07T03:05:11;100831.44;;;22.49;48.61
48872;BME280;36154;51.674;7.824;2023-05-07T03:07:37;100833.13;;;22.50;48.64
48872;BME280;36154;51.674;7.824;2023-05-07T03:10:03;100832.31;;;22.50;48.47
48872;BME280;36154;51.674;7.824;2023-05-07T03:12:29;100837.50;;;22.50;48.43
48872;BME280;36154;51.674;7.824;2023-05-07T03:14:54;100829.66;;;22.51;48.54
48872;BME280;36154;51.674;7.824;2023-05-07T03:17:21;100827.94;;;22.50;48.57
48872;BME280;36154;51.674;7.824;2023-05-07T03:19:47;100822.75;;;22.50;48.40
48872;BME280;36154;51.674;7.824;2023-05-07T03:22:12;100827.09;;;22.50;48.55
48872;BME280;36154;51.674;7.824;2023-05-07T03:24:37;100836.63;;;22.49;48.88
48872;BME280;36154;51.674;7.824;2023-05-07T03:27:03;100838.34;;;22.50;48.42
48872;BME280;36154;51.674;7.824;2023-05-07T03:29:28;100832.31;;;22.50;48.50
48872;BME280;36154;51.674;7.824;2023-05-07T03:31:53;100826.25;;;22.49;48.61
48872;BME280;36154;51.674;7.824;2023-05-07T03:34:19;100827.94;;;22.50;48.65
48872;BME280;36154;51.674;7.824;2023-05-07T03:36:50;100829.69;;;22.50;48.53
48872;BME280;36154;51.674;7.824;2023-05-07T03:39:16;100832.31;;;22.50;48.70
48872;BME280;36154;51.674;7.824;2023-05-07T03:41:41;100828.03;;;22.47;48.74
48872;BME280;36154;51.674;7.824;2023-05-07T03:44:06;100834.94;;;22.48;48.67
48872;BME280;36154;51.674;7.824;2023-05-07T03:46:33;100832.34;;;22.48;48.69
48872;BME280;36154;51.674;7.824;2023-05-07T03:48:58;100833.13;;;22.50;48.67
48872;BME280;36154;51.674;7.824;2023-05-07T03:51:24;100833.19;;;22.49;48.65
48872;BME280;36154;51.674;7.824;2023-05-07T03:53:50;100835.78;;;22.49;48.75
48872;BME280;36154;51.674;7.824;2023-05-07T03:56:18;100839.34;;;22.46;48.56
48872;BME280;36154;51.674;7.824;2023-05-07T03:58:43;100847.88;;;22.50;48.61
48872;BME280;36154;51.674;7.824;2023-05-07T04:01:09;100850.53;;;22.48;48.69
48872;BME280;36154;51.674;7.824;2023-05-07T04:03:34;100847.94;;;22.48;48.76
48872;BME280;36154;51.674;7.824;2023-05-07T04:06:00;100858.31;;;22.48;48.51
48872;BME280;36154;51.674;7.824;2023-05-07T04:08:25;100852.19;;;22.49;48.67
48872;BME280;36154;51.674;7.824;2023-05-07T04:10:59;100851.34;;;22.49;48.69
48872;BME280;36154;51.674;7.824;2023-05-07T04:13:25;100861.75;;;22.49;48.62
48872;BME280;36154;51.674;7.824;2023-05-07T04:15:51;100856.56;;;22.49;48.65
48872;BME280;36154;51.674;7.824;2023-05-07T04:18:16;100855.72;;;22.48;48.49
48872;BME280;36154;51.674;7.824;2023-05-07T04:20:42;100850.53;;;22.48;48.57
48872;BME280;36154;51.674;7.824;2023-05-07T04:23:07;100848.81;;;22.47;48.52
48872;BME280;36154;51.674;7.824;2023-05-07T04:25:33;100856.56;;;22.49;48.54
48872;BME280;36154;51.674;7.824;2023-05-07T04:27:58;100857.53;;;22.46;48.85
48872;BME280;36154;51.674;7.824;2023-05-07T04:30:24;100866.09;;;22.48;48.72
48872;BME280;36154;51.674;7.824;2023-05-07T04:32:49;100862.66;;;22.48;48.57
48872;BME280;36154;51.674;7.824;2023-05-07T04:35:14;100862.59;;;22.49;48.64
48872;BME280;36154;51.674;7.824;2023-05-07T04:37:39;100866.94;;;22.49;48.40
48872;BME280;36154;51.674;7.824;2023-05-07T04:40:05;100859.19;;;22.47;48.89
48872;BME280;36154;51.674;7.824;2023-05-07T04:42:33;100855.72;;;22.48;48.62
48872;BME280;36154;51.674;7.824;2023-05-07T04:44:59;100860.91;;;22.48;48.47
48872;BME280;36154;51.674;7.824;2023-05-07T04:47:25;100857.41;;;22.49;48.77
48872;BME280;36154;51.674;7.824;2023-05-07T04:49:50;100857.41;;;22.49;48.57
48872;BME280;36154;51.674;7.824;2023-05-07T04:52:15;100849.59;;;22.49;48.42
48872;BME280;36154;51.674;7.824;2023-05-07T04:54:41;100857.41;;;22.49;48.79
48872;BME280;36154;51.674;7.824;2023-05-07T04:57:07;100867.78;;;22.49;48.55
48872;BME280;36154;51.674;7.824;2023-05-07T04:59:32;100865.19;;;22.49;48.60
48872;BME280;36154;51.674;7.824;2023-05-07T05:01:58;100868.69;;;22.48;48.56
48872;BME280;36154;51.674;7.824;2023-05-07T05:04:23;100867.78;;;22.49;48.56
48872;BME280;36154;51.674;7.824;2023-05-07T05:06:49;100876.44;;;22.50;48.78
48872;BME280;36154;51.674;7.824;2023-05-07T05:09:14;100873.84;;;22.50;48.71
48872;BME280;36154;51.674;7.824;2023-05-07T05:11:41;100873.84;;;22.50;48.62
48872;BME280;36154;51.674;7.824;2023-05-07T05:14:06;100868.69;;;22.48;48.50
48872;BME280;36154;51.674;7.824;2023-05-07T05:16:31;100873.84;;;22.50;48.75
48872;BME280;36154;51.674;7.824;2023-05-07T05:18:56;100875.53;;;22.51;48.63
48872;BME280;36154;51.674;7.824;2023-05-07T05:21:22;100873.84;;;22.50;48.67
48872;BME280;36154;51.674;7.824;2023-05-07T05:23:47;100879.88;;;22.50;48.43
48872;BME280;36154;51.674;7.824;2023-05-07T05:26:12;100872.97;;;22.49;48.78
48872;BME280;36154;51.674;7.824;2023-05-07T05:28:38;100875.53;;;22.51;48.62
48872;BME280;36154;51.674;7.824;2023-05-07T05:31:04;100879.03;;;22.50;48.60
48872;BME280;36154;51.674;7.824;2023-05-07T05:33:30;100876.38;;;22.51;48.52
48872;BME280;36154;51.674;7.824;2023-05-07T05:35:55;100880.72;;;22.51;48.64
48872;BME280;36154;51.674;7.824;2023-05-07T05:38:20;100879.00;;;22.51;48.56
48872;BME280;36154;51.674;7.824;2023-05-07T05:40:46;100884.28;;;22.48;48.85
48872;BME280;36154;51.674;7.824;2023-05-07T05:43:11;100886.78;;;22.51;48.76
48872;BME280;36154;51.674;7.824;2023-05-07T05:45:37;100887.66;;;22.50;48.46
48872;BME280;36154;51.674;7.824;2023-05-07T05:48:02;100883.34;;;22.49;48.47
48872;BME280;36154;51.674;7.824;2023-05-07T05:50:28;100886.78;;;22.51;48.68
48872;BME280;36154;51.674;7.824;2023-05-07T05:52:53;100889.38;;;22.51;48.74
48872;BME280;36154;51.674;7.824;2023-05-07T05:55:18;100897.16;;;22.51;48.75
48872;BME280;36154;51.674;7.824;2023-05-07T05:57:44;100893.66;;;22.52;48.85
48872;BME280;36154;51.674;7.824;2023-05-07T06:00:10;100893.66;;;22.52;48.74
48872;BME280;36154;51.674;7.824;2023-05-07T06:02:36;100893.66;;;22.52;48.65
48872;BME280;36154;51.674;7.824;2023-05-07T06:05:01;100891.06;;;22.52;48.62
48872;BME280;36154;51.674;7.824;2023-05-07T06:07:27;100897.06;;;22.55;48.64
48872;BME280;36154;51.674;7.824;2023-05-07T06:09:52;100891.88;;;22.55;48.73
48872;BME280;36154;51.674;7.824;2023-05-07T06:12:17;100890.16;;;22.53;48.84
48872;BME280;36154;51.674;7.824;2023-05-07T06:14:43;100887.56;;;22.53;48.81
48872;BME280;36154;51.674;7.824;2023-05-07T06:17:09;100906.59;;;22.54;48.38
48872;BME280;36154;51.674;7.824;2023-05-07T06:19:34;100907.50;;;22.53;48.73
48872;BME280;36154;51.674;7.824;2023-05-07T06:22:00;100912.66;;;22.55;48.79
48872;BME280;36154;51.674;7.824;2023-05-07T06:24:26;100917.75;;;22.56;48.74
48872;BME280;36154;51.674;7.824;2023-05-07T06:26:54;100919.53;;;22.56;48.86
48872;BME280;36154;51.674;7.824;2023-05-07T06:29:20;100923.88;;;22.55;48.52
48872;BME280;36154;51.674;7.824;2023-05-07T06:31:45;100924.72;;;22.56;48.58
48872;BME280;36154;51.674;7.824;2023-05-07T06:34:10;100923.03;;;22.55;48.82
48872;BME280;36154;51.674;7.824;2023-05-07T06:36:39;100924.72;;;22.56;48.53
48872;BME280;36154;51.674;7.824;2023-05-07T06:39:04;100924.72;;;22.56;48.59
48872;BME280;36154;51.674;7.824;2023-05-07T06:41:30;100929.03;;;22.57;48.67
48872;BME280;36154;51.674;7.824;2023-05-07T06:43:55;100930.75;;;22.56;48.46
48872;BME280;36154;51.674;7.824;2023-05-07T06:46:20;100924.66;;;22.57;48.75
48872;BME280;36154;51.674;7.824;2023-05-07T06:48:45;100927.25;;;22.57;48.65
48872;BME280;36154;51.674;7.824;2023-05-07T06:51:11;100927.31;;;22.56;48.42
48872;BME280;36154;51.674;7.824;2023-05-07T06:53:36;100939.38;;;22.58;48.64
48872;BME280;36154;51.674;7.824;2023-05-07T06:56:01;100937.59;;;22.59;48.36
48872;BME280;36154;51.674;7.824;2023-05-07T06:58:26;100943.69;;;22.58;48.71
48872;BME280;36154;51.674;7.824;2023-05-07T07:00:52;100935.00;;;22.59;48.50
48872;BME280;36154;51.674;7.824;2023-05-07T07:03:17;100941.03;;;22.59;48.41
48872;BME280;36154;51.674;7.824;2023-05-07T07:05:42;100937.59;;;22.59;48.73
48872;BME280;36154;51.674;7.824;2023-05-07T07:08:09;100936.72;;;22.60;48.60
48872;BME280;36154;51.674;7.824;2023-05-07T07:10:34;100941.91;;;22.60;48.68
48872;BME280;36154;51.674;7.824;2023-05-07T07:13:00;100945.34;;;22.60;48.57
48872;BME280;36154;51.674;7.824;2023-05-07T07:15:26;100937.56;;;22.60;48.70
48872;BME280;36154;51.674;7.824;2023-05-07T07:17:51;100935.00;;;22.59;48.81
48872;BME280;36154;51.674;7.824;2023-05-07T07:20:16;100936.72;;;22.60;48.71
48872;BME280;36154;51.674;7.824;2023-05-07T07:22:42;100933.19;;;22.61;48.62
48872;BME280;36154;51.674;7.824;2023-05-07T07:25:07;100938.41;;;22.61;48.60
48872;BME280;36154;51.674;7.824;2023-05-07T07:27:33;100939.25;;;22.61;48.52
48872;BME280;36154;51.674;7.824;2023-05-07T07:29:58;100936.72;;;22.60;48.56
48872;BME280;36154;51.674;7.824;2023-05-07T07:32:23;100937.50;;;22.62;48.62
48872;BME280;36154;51.674;7.824;2023-05-07T07:34:49;100938.41;;;22.61;48.54
48872;BME280;36154;51.674;7.824;2023-05-07T07:37:14;100936.59;;;22.63;48.44
48872;BME280;36154;51.674;7.824;2023-05-07T07:39:39;100944.38;;;22.63;48.54
48872;BME280;36154;51.674;7.824;2023-05-07T07:42:06;100938.31;;;22.64;48.54
48872;BME280;36154;51.674;7.824;2023-05-07T07:44:31;100938.31;;;22.64;48.69
48872;BME280;36154;51.674;7.824;2023-05-07T07:46:56;100935.69;;;22.64;48.43
48872;BME280;36154;51.674;7.824;2023-05-07T07:49:22;100940.00;;;22.65;48.70
48872;BME280;36154;51.674;7.824;2023-05-07T07:51:48;100939.13;;;22.64;48.53
48872;BME280;36154;51.674;7.824;2023-05-07T07:54:13;100936.50;;;22.66;48.73
48872;BME280;36154;51.674;7.824;2023-05-07T07:56:38;100937.41;;;22.65;48.47
48872;BME280;36154;51.674;7.824;2023-05-07T07:59:04;100944.28;;;22.66;48.76
48872;BME280;36154;51.674;7.824;2023-05-07T08:01:30;100935.66;;;22.65;48.52
48872;BME280;36154;51.674;7.824;2023-05-07T08:03:55;100941.69;;;22.66;48.64
48872;BME280;36154;51.674;7.824;2023-05-07T08:06:23;100942.56;;;22.66;48.70
48872;BME280;36154;51.674;7.824;2023-05-07T08:08:48;100952.06;;;22.66;48.62
48872;BME280;36154;51.674;7.824;2023-05-07T08:11:14;100944.28;;;22.66;48.86
48872;BME280;36154;51.674;7.824;2023-05-07T08:13:39;100955.50;;;22.68;48.70
48872;BME280;36154;51.674;7.824;2023-05-07T08:16:05;100955.50;;;22.68;48.45
48872;BME280;36154;51.674;7.824;2023-05-07T08:18:30;100952.03;;;22.67;48.53
48872;BME280;36154;51.674;7.824;2023-05-07T08:20:56;100960.69;;;22.68;48.53
48872;BME280;36154;51.674;7.824;2023-05-07T08:23:21;100953.78;;;22.67;48.57
48872;BME280;36154;51.674;7.824;2023-05-07T08:25:48;100959.78;;;22.69;48.69
48872;BME280;36154;51.674;7.824;2023-05-07T08:28:14;100957.19;;;22.69;48.52
48872;BME280;36154;51.674;7.824;2023-05-07T08:30:40;100957.19;;;22.69;48.47
48872;BME280;36154;51.674;7.824;2023-05-07T08:33:05;100953.78;;;22.67;48.44
48872;BME280;36154;51.674;7.824;2023-05-07T08:35:31;100958.94;;;22.68;47.83
48872;BME280;36154;51.674;7.824;2023-05-07T08:37:56;100959.91;;;22.64;48.02
48872;BME280;36154;51.674;7.824;2023-05-07T08:40:25;100960.94;;;22.60;47.89
48872;BME280;36154;51.674;7.824;2023-05-07T08:42:52;100963.66;;;22.56;47.95
48872;BME280;36154;51.674;7.824;2023-05-07T08:45:18;100962.09;;;22.51;48.10
48872;BME280;36154;51.674;7.824;2023-05-07T08:47:59;100966.44;;;22.49;47.86
48872;BME280;36154;51.674;7.824;2023-05-07T08:50:25;100965.66;;;22.47;48.00
48872;BME280;36154;51.674;7.824;2023-05-07T08:52:50;100964.03;;;22.45;47.99
48872;BME280;36154;51.674;7.824;2023-05-07T08:55:16;100966.72;;;22.42;48.16
48872;BME280;36154;51.674;7.824;2023-05-07T08:57:42;100972.78;;;22.41;48.18
48872;BME280;36154;51.674;7.824;2023-05-07T09:00:07;100968.56;;;22.38;48.21
48872;BME280;36154;51.674;7.824;2023-05-07T09:02:35;100961.66;;;22.37;48.35
48872;BME280;36154;51.674;7.824;2023-05-07T09:05:01;100954.97;;;22.30;48.28
48872;BME280;36154;51.674;7.824;2023-05-07T09:07:26;100948.72;;;22.36;48.36
48872;BME280;36154;51.674;7.824;2023-05-07T09:09:52;100956.56;;;22.34;48.27
48872;BME280;36154;51.674;7.824;2023-05-07T09:12:18;100958.34;;;22.32;47.92
48872;BME280;36154;51.674;7.824;2023-05-07T09:14:44;100950.69;;;22.27;47.78
48872;BME280;36154;51.674;7.824;2023-05-07T09:17:10;100961.13;;;22.26;47.91
48872;BME280;36154;51.674;7.824;2023-05-07T09:19:36;100960.34;;;22.24;48.20
48872;BME280;36154;51.674;7.824;2023-05-07T09:22:02;100963.84;;;22.23;48.21
48872;BME280;36154;51.674;7.824;2023-05-07T09:24:28;100955.22;;;22.21;48.51
48872;BME280;36154;51.674;7.824;2023-05-07T09:26:57;100961.25;;;22.23;48.49
48872;BME280;36154;51.674;7.824;2023-05-07T09:29:23;100958.75;;;22.20;48.62
48872;BME280;36154;51.674;7.824;2023-05-07T09:31:48;100958.75;;;22.20;48.71
48872;BME280;36154;51.674;7.824;2023-05-07T09:34:13;100956.94;;;22.22;48.62
48872;BME280;36154;51.674;7.824;2023-05-07T09:36:39;100969.13;;;22.20;48.59
48872;BME280;36154;51.674;7.824;2023-05-07T09:39:05;100958.78;;;22.18;49.02
48872;BME280;36154;51.674;7.824;2023-05-07T09:41:30;100962.22;;;22.19;48.92
48872;BME280;36154;51.674;7.824;2023-05-07T09:43:57;100960.50;;;22.18;48.76
48872;BME280;36154;51.674;7.824;2023-05-07T09:46:29;100956.28;;;22.15;48.66
48872;BME280;36154;51.674;7.824;2023-05-07T09:48:57;100967.50;;;22.15;48.63
48872;BME280;36154;51.674;7.824;2023-05-07T09:51:29;100967.50;;;22.15;48.95
48872;BME280;36154;51.674;7.824;2023-05-07T09:53:57;100967.56;;;22.14;48.72
48872;BME280;36154;51.674;7.824;2023-05-07T09:56:26;100971.00;;;22.14;48.86
48872;BME280;36154;51.674;7.824;2023-05-07T09:58:54;100963.28;;;22.13;48.98
48872;BME280;36154;51.674;7.824;2023-05-07T10:01:19;100960.81;;;22.08;49.05
48872;BME280;36154;51.674;7.824;2023-05-07T10:03:49;100963.22;;;22.14;48.94
48872;BME280;36154;51.674;7.824;2023-05-07T10:06:15;100962.31;;;22.15;49.10
48872;BME280;36154;51.674;7.824;2023-05-07T10:08:42;100962.28;;;22.17;48.99
48872;BME280;36154;51.674;7.824;2023-05-07T10:11:09;100960.63;;;22.14;48.97
48872;BME280;36154;51.674;7.824;2023-05-07T10:13:35;100958.84;;;22.17;48.87
48872;BME280;36154;51.674;7.824;2023-05-07T10:16:04;100961.44;;;22.17;48.64
48872;BME280;36154;51.674;7.824;2023-05-07T10:18:31;100961.44;;;22.17;48.80
48872;BME280;36154;51.674;7.824;2023-05-07T10:21:09;100968.31;;;22.18;48.88
48872;BME280;36154;51.674;7.824;2023-05-07T10:23:36;100970.91;;;22.18;48.88
48872;BME280;36154;51.674;7.824;2023-05-07T10:26:06;100960.50;;;22.18;48.75
48872;BME280;36154;51.674;7.824;2023-05-07T10:28:37;100958.03;;;22.14;48.86
48872;BME280;36154;51.674;7.824;2023-05-07T10:31:31;100963.31;;;22.11;48.75
48872;BME280;36154;51.674;7.824;2023-05-07T10:34:07;100955.63;;;22.08;48.66
48872;BME280;36154;51.674;7.824;2023-05-07T10:36:34;100966.00;;;22.08;48.84
48872;BME280;36154;51.674;7.824;2023-05-07T10:38:59;100963.44;;;22.07;48.68
48872;BME280;36154;51.674;7.824;2023-05-07T10:41:25;100962.59;;;22.06;48.73
48872;BME280;36154;51.674;7.824;2023-05-07T10:43:50;100965.22;;;22.05;48.86
48872;BME280;36154;51.674;7.824;2023-05-07T10:46:20;100966.91;;;22.06;48.71
48872;BME280;36154;51.674;7.824;2023-05-07T10:51:26;100958.22;;;22.08;48.78
48872;BME280;36154;51.674;7.824;2023-05-07T10:56:39;100960.00;;;22.06;48.66
48872;BME280;36154;51.674;7.824;2023-05-07T11:02:03;100953.91;;;22.07;48.68
48872;BME280;36154;51.674;7.824;2023-05-07T11:04:31;100954.78;;;22.08;48.53
48872;BME280;36154;51.674;7.824;2023-05-07T11:12:59;100953.91;;;22.07;48.33
48872;BME280;36154;51.674;7.824;2023-05-07T11:15:10;100943.53;;;22.06;48.15
48872;BME280;36154;51.674;7.824;2023-05-07T11:20:19;100958.91;;;22.13;48.02
48872;BME280;36154;51.674;7.824;2023-05-07T11:22:45;100950.13;;;22.18;47.80
48872;BME280;36154;51.674;7.824;2023-05-07T11:25:17;100950.03;;;22.21;47.80
48872;BME280;36154;51.674;7.824;2023-05-07T11:27:43;100948.16;;;22.26;47.56
48872;BME280;36154;51.674;7.824;2023-05-07T11:30:08;100948.06;;;22.29;47.60
48872;BME280;36154;51.674;7.824;2023-05-07T11:32:34;100951.44;;;22.31;47.68
48872;BME280;36154;51.674;7.824;2023-05-07T11:35:00;100950.53;;;22.33;47.58
48872;BME280;36154;51.674;7.824;2023-05-07T11:37:26;100943.53;;;22.36;47.63
48872;BME280;36154;51.674;7.824;2023-05-07T11:40:04;100939.09;;;22.39;47.98
48872;BME280;36154;51.674;7.824;2023-05-07T11:42:33;100941.59;;;22.42;48.23
48872;BME280;36154;51.674;7.824;2023-05-07T11:44:59;100932.88;;;22.45;48.16
48872;BME280;36154;51.674;7.824;2023-05-07T11:47:24;100937.09;;;22.47;47.93
48872;BME280;36154;51.674;7.824;2023-05-07T11:49:54;100932.69;;;22.49;48.25
48872;BME280;36154;51.674;7.824;2023-05-07T11:52:21;100939.56;;;22.52;48.26
48872;BME280;36154;51.674;7.824;2023-05-07T11:54:51;100933.44;;;22.55;49.28
48872;BME280;36154;51.674;7.824;2023-05-07T11:57:16;100935.91;;;22.58;49.63
48872;BME280;36154;51.674;7.824;2023-05-07T11:59:42;100944.38;;;22.63;49.52
48872;BME280;36154;51.674;7.824;2023-05-07T12:02:09;100945.94;;;22.68;49.42
48872;BME280;36154;51.674;7.824;2023-05-07T12:04:35;100938.00;;;22.73;49.55
48872;BME280;36154;51.674;7.824;2023-05-07T12:07:00;100949.97;;;22.77;49.78
48872;BME280;36154;51.674;7.824;2023-05-07T12:09:26;100939.50;;;22.80;49.93
48872;BME280;36154;51.674;7.824;2023-05-07T12:11:51;100942.03;;;22.83;50.24
48872;BME280;36154;51.674;7.824;2023-05-07T12:14:17;100944.53;;;22.86;49.90
48872;BME280;36154;51.674;7.824;2023-05-07T12:16:43;100942.81;;;22.85;49.85
48872;BME280;36154;51.674;7.824;2023-05-07T12:19:08;100945.28;;;22.90;49.90
48872;BME280;36154;51.674;7.824;2023-05-07T12:21:37;100948.66;;;22.92;50.01
48872;BME280;36154;51.674;7.824;2023-05-07T12:24:03;100951.22;;;22.94;50.07
48872;BME280;36154;51.674;7.824;2023-05-07T12:26:28;100955.47;;;22.95;50.23
48872;BME280;36154;51.674;7.824;2023-05-07T12:28:53;100951.09;;;22.97;50.25
48872;BME280;36154;51.674;7.824;2023-05-07T12:31:19;100955.34;;;22.99;50.33
48872;BME280;36154;51.674;7.824;2023-05-07T12:33:45;100949.28;;;22.99;50.25
48872;BME280;36154;51.674;7.824;2023-05-07T12:36:12;100955.22;;;23.02;50.07
48872;BME280;36154;51.674;7.824;2023-05-07T12:38:38;100955.19;;;23.04;50.24
48872;BME280;36154;51.674;7.824;2023-05-07T12:41:06;100957.69;;;23.07;50.09
48872;BME280;36154;51.674;7.824;2023-05-07T12:43:32;100961.91;;;23.10;50.32
48872;BME280;36154;51.674;7.824;2023-05-07T12:46:04;100950.56;;;23.12;50.04
48872;BME280;36154;51.674;7.824;2023-05-07T12:48:30;100943.75;;;23.08;50.24
48872;BME280;36154;51.674;7.824;2023-05-07T12:50:57;100950.47;;;23.15;49.70
48872;BME280;36154;51.674;7.824;2023-05-07T12:53:24;100949.56;;;23.16;49.86
48872;BME280;36154;51.674;7.824;2023-05-07T12:55:52;100953.84;;;23.17;50.05
48872;BME280;36154;51.674;7.824;2023-05-07T12:58:24;100956.34;;;23.20;49.69
48872;BME280;36154;51.674;7.824;2023-05-07T13:00:51;100954.59;;;23.21;49.87